createdAt,value
2023-03-28T00:02:27.988Z,56.94
2023-03-28T00:05:00.385Z,57.11
2023-03-28T00:07:29.641Z,56.82
2023-03-28T00:09:58.345Z,56.93
2023-03-28T00:12:27.434Z,57.05
2023-03-28T00:14:57.870Z,57.38
2023-03-28T00:17:26.521Z,57.63
2023-03-28T00:19:55.442Z,57.68
2023-03-28T00:22:30.860Z,57.31
2023-03-28T00:24:59.905Z,57.30
2023-03-28T00:27:28.826Z,57.42
2023-03-28T00:29:58.152Z,57.59
2023-03-28T00:32:57.786Z,57.78
2023-03-28T00:35:27.378Z,58.27
2023-03-28T00:37:58.138Z,57.93
2023-03-28T00:40:27.714Z,58.11
2023-03-28T00:42:56.570Z,58.22
2023-03-28T00:45:27.278Z,58.38
2023-03-28T00:48:02.371Z,58.39
2023-03-28T00:50:41.190Z,58.75
2023-03-28T00:53:20.662Z,58.66
2023-03-28T00:55:57.753Z,58.53
2023-03-28T00:58:28.284Z,58.93
2023-03-28T01:00:57.584Z,58.88
2023-03-28T01:03:34.101Z,58.70
2023-03-28T01:06:04.938Z,58.84
2023-03-28T01:08:44.337Z,59.03
2023-03-28T01:11:13.211Z,59.09
2023-03-28T01:13:46.361Z,58.83
2023-03-28T01:16:16.179Z,58.98
2023-03-28T01:18:47.232Z,58.73
2023-03-28T01:21:38.631Z,59.10
2023-03-28T01:24:49.566Z,59.09
2023-03-28T01:27:20.260Z,59.15
2023-03-28T01:30:02.842Z,58.93
2023-03-28T01:33:05.584Z,59.18
2023-03-28T01:36:09.295Z,59.16
2023-03-28T01:38:48.466Z,59.35
2023-03-28T01:41:35.705Z,59.15
2023-03-28T01:44:06.727Z,59.25
2023-03-28T01:46:51.234Z,59.02
2023-03-28T01:49:29.688Z,59.16
2023-03-28T01:52:01.514Z,59.21
2023-03-28T01:55:05.928Z,59.23
2023-03-28T01:57:39.359Z,59.15
2023-03-28T02:00:15.957Z,59.13
2023-03-28T02:03:19.183Z,59.17
2023-03-28T02:05:54.596Z,59.12
2023-03-28T02:08:26.801Z,59.15
2023-03-28T02:11:14.031Z,58.78
2023-03-28T02:14:11.582Z,58.64
2023-03-28T02:16:57.657Z,58.56
2023-03-28T02:19:38.064Z,58.64
2023-03-28T02:22:32.504Z,58.49
2023-03-28T02:25:01.333Z,58.49
2023-03-28T02:27:43.907Z,58.50
2023-03-28T02:30:40.190Z,58.57
2023-03-28T02:33:39.354Z,58.71
2023-03-28T02:36:33.765Z,58.62
2023-03-28T02:39:16.907Z,58.79
2023-03-28T02:41:55.028Z,58.82
2023-03-28T02:44:28.245Z,58.86
2023-03-28T02:47:02.754Z,58.94
2023-03-28T02:49:49.521Z,59.20
2023-03-28T02:52:52.546Z,59.27
2023-03-28T02:55:34.650Z,59.20
2023-03-28T02:58:37.890Z,59.22
2023-03-28T03:01:07.652Z,59.16
2023-03-28T03:03:37.810Z,59.44
2023-03-28T03:06:15.157Z,59.37
2023-03-28T03:46:03.454Z,59.18
2023-03-28T03:48:39.326Z,58.96
2023-03-28T03:51:19.633Z,58.98
2023-03-28T03:53:50.987Z,59.13
2023-03-28T03:56:22.984Z,58.95
2023-03-28T03:58:54.166Z,58.91
2023-03-28T04:01:30.780Z,59.03
2023-03-28T04:04:29.646Z,59.03
2023-03-28T04:07:13.621Z,58.97
2023-03-28T04:09:43.208Z,59.11
2023-03-28T04:12:12.015Z,59.06
2023-03-28T04:14:48.337Z,58.93
2023-03-28T04:17:38.060Z,59.23
2023-03-28T04:22:16.796Z,59.29
2023-03-28T04:26:52.981Z,59.52
2023-03-28T04:29:31.011Z,59.51
2023-03-28T04:32:14.167Z,59.04
2023-03-28T04:35:04.976Z,59.21
2023-03-28T04:37:37.936Z,59.19
2023-03-28T04:40:16.347Z,58.84
2023-03-28T04:43:10.835Z,58.22
2023-03-28T04:45:50.575Z,57.80
2023-03-28T04:48:20.244Z,57.25
2023-03-28T04:50:49.076Z,56.95
2023-03-28T04:53:20.760Z,56.64
2023-03-28T04:56:09.061Z,56.20
2023-03-28T04:58:39.113Z,56.11
2023-03-28T05:01:11.894Z,56.51
2023-03-28T05:04:01.913Z,56.24
2023-03-28T05:06:31.096Z,56.35
2023-03-28T05:08:59.843Z,56.49
2023-03-28T05:11:31.347Z,56.65
2023-03-28T05:14:00.231Z,56.83
2023-03-28T05:16:36.752Z,56.76
2023-03-28T05:19:25.213Z,56.61
2023-03-28T05:22:02.024Z,56.34
2023-03-28T05:24:31.955Z,56.29
2023-03-28T05:27:01.075Z,56.10
2023-03-28T05:29:30.130Z,55.86
2023-03-28T05:32:19.545Z,55.93
2023-03-28T05:34:48.476Z,55.85
2023-03-28T05:37:17.210Z,56.27
2023-03-28T05:39:56.008Z,56.11
2023-03-28T05:42:26.115Z,55.94
2023-03-28T05:44:55.846Z,55.77
2023-03-28T05:47:43.747Z,55.50
2023-03-28T05:50:17.842Z,55.62
2023-03-28T05:52:57.743Z,55.60
2023-03-28T05:55:26.358Z,55.40
2023-03-28T05:57:56.270Z,54.85
2023-03-28T06:00:26.158Z,55.08
2023-03-28T06:02:56.931Z,54.82
2023-03-28T06:05:34.706Z,54.80
2023-03-28T06:08:06.356Z,54.73
2023-03-28T06:10:35.663Z,54.31
2023-03-28T06:13:21.169Z,53.07
2023-03-28T06:15:49.887Z,51.66
2023-03-28T06:24:45.870Z,50.33
2023-03-28T06:31:12.393Z,50.83
2023-03-28T06:33:54.698Z,51.38
2023-03-28T06:36:23.806Z,51.71
2023-03-28T06:38:53.735Z,51.73
2023-03-28T06:41:23.923Z,51.82
2023-03-28T06:43:52.605Z,51.82
2023-03-28T06:47:02.997Z,52.07
2023-03-28T06:49:32.128Z,51.90
2023-03-28T06:52:20.239Z,51.82
2023-03-28T06:54:49.670Z,51.95
2023-03-28T06:57:19.589Z,52.10
2023-03-28T06:59:49.537Z,52.24
2023-03-28T07:02:22.065Z,52.23
2023-03-28T07:04:56.380Z,52.66
2023-03-28T07:07:25.514Z,53.14
2023-03-28T07:09:55.003Z,52.81
2023-03-28T07:12:26.807Z,52.89
2023-03-28T07:14:56.394Z,52.82
2023-03-28T07:18:06.114Z,53.00
2023-03-28T07:20:34.937Z,53.05
2023-03-28T07:23:03.762Z,53.86
2023-03-28T07:25:34.599Z,53.90
2023-03-28T07:28:04.714Z,53.95
2023-03-28T07:30:35.973Z,53.78
2023-03-28T07:33:16.627Z,53.96
2023-03-28T07:35:47.602Z,53.98
2023-03-28T07:38:17.131Z,53.98
2023-03-28T07:40:53.961Z,53.82
2023-03-28T07:43:23.299Z,53.77
2023-03-28T07:46:03.635Z,53.81
2023-03-28T07:48:32.677Z,53.56
2023-03-28T07:51:01.739Z,53.72
2023-03-28T07:53:30.845Z,53.40
2023-03-28T07:55:59.904Z,53.10
2023-03-28T07:58:35.853Z,52.73
2023-03-28T08:01:57.770Z,53.30
2023-03-28T08:04:31.245Z,52.90
2023-03-28T08:07:07.946Z,53.15
2023-03-28T08:09:37.247Z,53.03
2023-03-28T08:12:19.801Z,53.10
2023-03-28T08:15:10.452Z,53.13
2023-03-28T08:17:39.650Z,53.01
2023-03-28T08:20:12.865Z,53.85
2023-03-28T08:23:03.304Z,53.77
2023-03-28T08:26:05.244Z,53.90
2023-03-28T08:28:37.334Z,53.14
2023-03-28T08:31:16.507Z,52.74
2023-03-28T08:33:48.918Z,53.11
2023-03-28T08:36:18.055Z,53.38
2023-03-28T08:38:47.388Z,53.49
2023-03-28T08:41:30.017Z,53.52
2023-03-28T08:44:27.428Z,53.29
2023-03-28T08:47:03.403Z,54.23
2023-03-28T08:49:34.126Z,54.24
2023-03-28T08:52:05.772Z,54.87
2023-03-28T08:55:08.897Z,55.02
2023-03-28T08:57:43.628Z,54.69
2023-03-28T09:00:15.380Z,55.29
2023-03-28T09:02:44.995Z,55.60
2023-03-28T09:05:23.482Z,56.04
2023-03-28T09:08:20.721Z,56.54
2023-03-28T09:11:03.687Z,56.52
2023-03-28T09:13:51.934Z,56.39
2023-03-28T09:16:23.956Z,56.41
2023-03-28T09:19:16.935Z,56.26
2023-03-28T09:22:15.926Z,56.45
2023-03-28T09:24:56.721Z,56.95
2023-03-28T09:38:43.358Z,59.66
2023-03-28T09:42:38.616Z,60.03
2023-03-28T09:46:41.979Z,60.76
2023-03-28T09:49:46.180Z,60.83
2023-03-28T09:55:21.751Z,60.96
2023-03-28T09:58:10.615Z,60.75
2023-03-28T10:00:58.794Z,60.68
2023-03-28T10:04:00.525Z,60.33
2023-03-28T10:07:09.747Z,60.40
2023-03-28T10:09:57.169Z,60.24
2023-03-28T10:12:36.831Z,60.22
2023-03-28T10:15:14.411Z,60.16
2023-03-28T10:18:20.067Z,60.17
2023-03-28T10:20:56.656Z,60.03
2023-03-28T10:23:26.584Z,60.15
2023-03-28T10:25:56.422Z,60.05
2023-03-28T10:28:33.413Z,59.99
2023-03-28T10:31:02.508Z,59.95
2023-03-28T10:34:03.009Z,59.94
2023-03-28T10:36:54.847Z,59.82
2023-03-28T10:39:30.861Z,59.75
2023-03-28T10:42:20.339Z,60.05
2023-03-28T10:45:03.012Z,59.81
2023-03-28T10:47:35.790Z,59.68
2023-03-28T10:50:07.274Z,59.38
2023-03-28T10:52:47.835Z,59.13
2023-03-28T10:55:25.432Z,58.98
2023-03-28T10:58:13.719Z,58.79
2023-03-28T11:00:59.473Z,58.56
2023-03-28T11:04:00.640Z,59.27
2023-03-28T11:07:15.879Z,60.43
2023-03-28T11:10:40.595Z,61.66
2023-03-28T11:13:37.705Z,62.12
2023-03-28T11:16:25.578Z,62.30
2023-03-28T11:19:39.972Z,62.62
2023-03-28T11:22:20.020Z,62.76
2023-03-28T11:24:52.219Z,62.37
2023-03-28T11:27:44.841Z,62.24
2023-03-28T11:30:29.746Z,62.13
2023-03-28T11:33:36.957Z,61.94
2023-03-28T11:36:16.718Z,61.90
2023-03-28T11:38:54.610Z,61.99
2023-03-28T11:41:26.292Z,62.26
2023-03-28T11:44:41.786Z,61.70
2023-03-28T11:47:18.825Z,61.50
2023-03-28T11:50:07.317Z,61.54
2023-03-28T11:53:14.053Z,60.93
2023-03-28T11:56:18.191Z,60.85
2023-03-28T11:59:09.872Z,60.70
2023-03-28T12:01:42.037Z,60.94
2023-03-28T12:04:13.919Z,61.36
2023-03-28T12:07:02.207Z,61.31
2023-03-28T12:09:38.155Z,61.68
2023-03-28T12:12:15.115Z,61.30
2023-03-28T12:14:57.865Z,60.88
2023-03-28T12:17:47.455Z,60.94
2023-03-28T12:20:31.292Z,61.04
2023-03-28T12:23:01.868Z,60.81
2023-03-28T12:26:04.276Z,60.58
2023-03-28T12:28:39.117Z,60.50
2023-03-28T12:31:14.837Z,61.08
2023-03-28T12:42:15.746Z,62.18
2023-03-28T12:45:07.402Z,62.95
2023-03-28T12:47:42.717Z,62.30
2023-03-28T12:50:45.023Z,63.04
2023-03-28T12:53:22.295Z,63.23
2023-03-28T12:55:54.985Z,63.63
2023-03-28T12:58:26.941Z,65.17
2023-03-28T13:01:30.092Z,64.93
2023-03-28T13:04:18.617Z,65.66
2023-03-28T13:07:10.891Z,65.82
2023-03-28T13:09:42.595Z,65.54
2023-03-28T13:12:31.119Z,66.45
2023-03-28T13:15:16.502Z,66.08
2023-03-28T13:17:49.722Z,66.96
2023-03-28T13:20:18.782Z,67.18
2023-03-28T13:22:58.670Z,66.68
2023-03-28T13:25:28.805Z,66.91
2023-03-28T13:29:03.572Z,66.66
2023-03-28T13:32:23.706Z,66.15
2023-03-28T13:34:57.911Z,65.41
2023-03-28T13:37:47.932Z,66.06
2023-03-28T13:40:56.419Z,65.52
2023-03-28T13:47:27.712Z,65.70
2023-03-28T13:53:55.607Z,66.52
2023-03-28T14:04:41.002Z,65.91
2023-03-28T14:14:41.373Z,66.23
2023-03-28T14:17:18.422Z,66.72
2023-03-28T14:20:24.613Z,66.42
2023-03-28T14:24:01.366Z,66.87
2023-03-28T14:26:51.992Z,67.73
2023-03-28T14:36:27.721Z,66.93
2023-03-28T14:39:19.935Z,66.65
2023-03-28T14:42:47.350Z,66.96
2023-03-28T14:46:25.371Z,67.10
2023-03-28T14:50:06.611Z,67.81
2023-03-28T14:53:13.605Z,67.86
2023-03-28T14:59:21.798Z,67.54
2023-03-28T15:02:27.586Z,68.19
2023-03-28T15:05:42.603Z,69.42
2023-03-28T15:09:58.012Z,69.88
2023-03-28T15:13:09.310Z,69.78
2023-03-28T15:16:09.201Z,69.92
2023-03-28T15:19:09.692Z,69.59
2023-03-28T15:21:40.482Z,69.23
2023-03-28T15:24:13.850Z,69.88
2023-03-28T15:26:44.741Z,69.76
2023-03-28T15:29:18.346Z,68.86
2023-03-28T15:31:49.620Z,68.51
2023-03-28T15:34:27.704Z,68.60
2023-03-28T15:37:02.755Z,68.94
2023-03-28T15:39:38.294Z,69.67
2023-03-28T15:42:21.313Z,69.23
2023-03-28T15:45:10.230Z,69.64
2023-03-28T15:48:20.170Z,68.74
2023-03-28T15:50:52.751Z,68.84
2023-03-28T15:56:23.542Z,68.44
2023-03-28T15:58:53.708Z,69.03
2023-03-28T16:01:49.331Z,68.94
2023-03-28T16:05:14.622Z,69.54
2023-03-28T16:18:04.249Z,67.22
2023-03-28T16:33:02.855Z,72.80
2023-03-28T16:35:53.842Z,66.72
2023-03-28T16:41:46.124Z,64.65
2023-03-28T16:44:32.557Z,63.59
2023-03-28T16:50:27.595Z,63.36
2023-03-28T16:53:22.408Z,63.00
2023-03-28T16:55:55.287Z,62.89
2023-03-28T16:58:29.078Z,63.58
2023-03-28T17:01:22.118Z,62.56
2023-03-28T17:03:56.878Z,61.97
2023-03-28T17:06:35.917Z,61.97
2023-03-28T17:09:05.730Z,61.11
2023-03-28T17:11:55.258Z,60.34
2023-03-28T17:14:53.527Z,58.82
2023-03-28T17:17:23.697Z,58.11
2023-03-28T17:19:52.481Z,58.29
2023-03-28T17:22:22.295Z,57.52
2023-03-28T17:31:07.717Z,58.05
2023-03-28T17:33:37.119Z,57.90
2023-03-28T17:36:58.091Z,58.13
2023-03-28T17:46:45.416Z,58.35
2023-03-28T17:53:27.931Z,58.24
2023-03-28T18:00:31.561Z,57.87
2023-03-28T18:07:15.697Z,58.41
2023-03-28T18:10:05.997Z,57.86
2023-03-28T18:12:37.191Z,58.10
2023-03-28T18:15:24.981Z,58.32
2023-03-28T18:18:14.797Z,58.52
2023-03-28T18:21:45.425Z,59.11
2023-03-28T18:24:25.005Z,58.51
2023-03-28T18:27:43.512Z,58.38
2023-03-28T18:40:38.814Z,58.36
2023-03-28T19:06:51.642Z,59.00
2023-03-28T19:12:56.440Z,59.65
2023-03-28T19:22:46.422Z,59.49
2023-03-28T19:25:40.767Z,58.87
2023-03-28T19:29:00.206Z,58.82
2023-03-28T19:31:57.343Z,58.84
2023-03-28T19:34:48.908Z,58.27
2023-03-28T19:37:44.820Z,58.23
2023-03-28T19:40:35.203Z,58.45
2023-03-28T19:43:16.882Z,58.70
2023-03-28T19:46:36.419Z,58.91
2023-03-28T19:49:30.396Z,59.19
2023-03-28T19:52:01.388Z,59.38
2023-03-28T19:54:36.677Z,59.24
2023-03-28T19:57:10.576Z,59.51
2023-03-28T20:00:01.953Z,59.38
2023-03-28T20:02:47.887Z,59.29
2023-03-28T20:05:18.110Z,59.52
2023-03-28T20:07:50.483Z,59.39
2023-03-28T20:10:20.590Z,59.39
2023-03-28T20:12:50.130Z,59.70
2023-03-28T20:15:19.557Z,59.77
2023-03-28T20:17:57.460Z,59.17
2023-03-28T20:20:30.277Z,59.19
2023-03-28T20:23:04.691Z,59.07
2023-03-28T20:26:01.752Z,58.40
2023-03-28T20:28:36.626Z,59.49
2023-03-28T20:31:13.472Z,59.07
2023-03-28T20:37:08.057Z,58.66
2023-03-28T20:39:42.472Z,59.04
2023-03-28T20:42:28.229Z,59.53
2023-03-28T20:45:22.319Z,59.80
2023-03-28T20:48:06.653Z,59.49
